createdAt,value
2022-08-26T00:00:21.093Z,8.38
2022-08-26T00:02:49.223Z,8.90
2022-08-26T00:05:17.329Z,8.30
2022-08-26T00:07:46.001Z,8.30
2022-08-26T00:10:14.077Z,9.05
2022-08-26T00:12:42.698Z,8.82
2022-08-26T00:15:13.603Z,8.68
2022-08-26T00:17:43.411Z,9.05
2022-08-26T00:20:14.098Z,8.90
2022-08-26T00:22:42.307Z,8.75
2022-08-26T00:25:12.164Z,8.98
2022-08-26T00:27:40.643Z,10.30
2022-08-26T00:30:11.934Z,9.52
2022-08-26T00:32:40.108Z,9.25
2022-08-26T00:35:13.867Z,9.77
2022-08-26T00:37:43.391Z,9.63
2022-08-26T00:40:16.623Z,8.90
2022-08-26T00:42:45.876Z,8.82
2022-08-26T00:45:15.300Z,9.70
2022-08-26T00:47:47.914Z,9.73
2022-08-26T00:50:19.706Z,10.75
2022-08-26T00:52:49.046Z,10.20
2022-08-26T00:55:23.125Z,11.93
2022-08-26T00:57:52.364Z,10.70
2022-08-26T01:00:23.983Z,10.85
2022-08-26T01:02:52.809Z,11.10
2022-08-26T01:05:22.179Z,11.32
2022-08-26T01:07:50.906Z,12.20
2022-08-26T01:10:22.344Z,12.20
2022-08-26T01:12:54.762Z,12.52
2022-08-26T01:15:26.134Z,12.07
2022-08-26T01:17:54.303Z,12.90
2022-08-26T01:20:30.155Z,13.45
2022-08-26T01:23:03.273Z,13.18
2022-08-26T01:25:34.908Z,12.50
2022-08-26T01:28:06.741Z,13.15
2022-08-26T01:30:36.532Z,12.52
2022-08-26T01:33:10.046Z,12.65
2022-08-26T01:35:39.577Z,11.98
2022-08-26T01:38:10.753Z,12.75
2022-08-26T01:40:43.895Z,12.02
2022-08-26T01:43:18.438Z,12.00
2022-08-26T01:45:48.757Z,12.65
2022-08-26T01:48:24.333Z,12.35
2022-08-26T01:50:53.940Z,13.27
2022-08-26T01:53:25.833Z,12.75
2022-08-26T01:55:58.953Z,12.77
2022-08-26T01:58:32.498Z,13.18
2022-08-26T02:01:00.981Z,13.48
2022-08-26T02:03:31.209Z,12.68
2022-08-26T02:06:04.654Z,13.38
2022-08-26T02:08:39.640Z,12.20
2022-08-26T02:11:08.121Z,11.85
2022-08-26T02:13:41.176Z,11.90
2022-08-26T02:16:11.822Z,11.93
2022-08-26T02:18:42.551Z,11.90
2022-08-26T02:21:12.126Z,12.45
2022-08-26T02:23:42.608Z,11.82
2022-08-26T02:26:17.902Z,12.23
2022-08-26T02:28:50.772Z,12.57
2022-08-26T02:31:19.120Z,12.40
2022-08-26T02:33:48.045Z,11.98
2022-08-26T02:36:21.126Z,12.07
2022-08-26T02:38:50.836Z,11.82
2022-08-26T02:41:20.148Z,11.75
2022-08-26T02:46:21.530Z,12.15
2022-08-26T02:48:56.378Z,12.50
2022-08-26T02:51:24.665Z,12.50
2022-08-26T02:53:54.409Z,13.32
2022-08-26T02:58:51.644Z,12.88
2022-08-26T03:01:26.587Z,12.07
2022-08-26T03:03:55.027Z,12.38
2022-08-26T03:06:24.336Z,12.80
2022-08-26T03:08:54.400Z,13.50
2022-08-26T03:11:23.665Z,12.95
2022-08-26T03:13:53.777Z,12.52
2022-08-26T03:16:22.002Z,12.40
2022-08-26T03:18:52.236Z,12.93
2022-08-26T03:21:21.438Z,12.20
2022-08-26T03:23:49.749Z,13.05
2022-08-26T03:26:19.611Z,12.55
2022-08-26T03:29:06.037Z,12.60
2022-08-26T03:31:34.449Z,11.98
2022-08-26T03:34:02.674Z,12.35
2022-08-26T03:36:31.020Z,12.13
2022-08-26T03:38:59.731Z,12.00
2022-08-26T03:41:29.164Z,12.20
2022-08-26T03:44:01.508Z,12.25
2022-08-26T03:46:31.557Z,11.70
2022-08-26T03:49:00.135Z,10.77
2022-08-26T03:51:28.757Z,12.75
2022-08-26T03:53:57.161Z,11.60
2022-08-26T03:56:25.298Z,12.10
2022-08-26T03:58:55.499Z,11.90
2022-08-26T04:01:24.093Z,11.35
2022-08-26T04:04:01.411Z,11.80
2022-08-26T04:06:31.045Z,11.95
2022-08-26T04:09:01.135Z,11.13
2022-08-26T04:11:32.145Z,12.95
2022-08-26T04:14:07.520Z,12.65
2022-08-26T04:16:35.847Z,12.80
2022-08-26T04:19:04.181Z,12.85
2022-08-26T04:21:32.676Z,11.93
2022-08-26T04:24:03.450Z,11.13
2022-08-26T04:26:37.020Z,11.95
2022-08-26T04:29:13.257Z,11.20
2022-08-26T04:31:41.578Z,12.15
2022-08-26T04:34:10.876Z,10.60
2022-08-26T04:36:39.359Z,10.88
2022-08-26T04:39:12.252Z,12.90
2022-08-26T04:41:40.671Z,12.70
2022-08-26T04:44:10.636Z,12.85
2022-08-26T04:46:39.767Z,12.07
2022-08-26T04:49:12.405Z,12.32
2022-08-26T04:51:40.733Z,12.73
2022-08-26T04:54:08.948Z,12.13
2022-08-26T04:56:39.763Z,12.75
2022-08-26T04:59:16.749Z,12.20
2022-08-26T05:01:47.930Z,11.88
2022-08-26T05:04:18.961Z,11.70
2022-08-26T05:06:47.595Z,12.57
2022-08-26T05:09:15.698Z,12.32
2022-08-26T05:11:43.750Z,11.77
2022-08-26T05:14:18.916Z,11.85
2022-08-26T05:16:47.742Z,11.25
2022-08-26T05:19:18.708Z,12.13
2022-08-26T05:21:47.833Z,11.45
2022-08-26T05:24:16.746Z,10.90
2022-08-26T05:26:45.335Z,11.10
2022-08-26T05:29:13.963Z,11.90
2022-08-26T05:31:43.579Z,11.68
2022-08-26T05:34:11.676Z,11.65
2022-08-26T05:36:40.229Z,10.88
2022-08-26T05:39:10.671Z,11.30
2022-08-26T05:41:41.130Z,11.73
2022-08-26T05:44:11.501Z,11.57
2022-08-26T05:46:41.283Z,11.70
2022-08-26T05:49:12.621Z,11.93
2022-08-26T05:51:41.936Z,11.57
2022-08-26T05:54:10.461Z,11.90
2022-08-26T05:56:39.226Z,11.48
2022-08-26T05:59:14.275Z,11.65
2022-08-26T06:01:43.144Z,12.20
2022-08-26T06:04:13.222Z,11.32
2022-08-26T06:06:42.635Z,12.67
2022-08-26T06:09:11.599Z,10.93
2022-08-26T06:11:40.513Z,12.68
2022-08-26T06:14:09.361Z,12.23
2022-08-26T06:16:40.893Z,12.15
2022-08-26T06:19:11.493Z,11.95
2022-08-26T06:21:42.987Z,11.43
2022-08-26T06:24:31.447Z,11.18
2022-08-26T06:27:01.616Z,11.25
2022-08-26T06:29:31.683Z,12.50
2022-08-26T06:32:00.279Z,11.90
2022-08-26T06:34:30.260Z,11.25
2022-08-26T06:37:02.458Z,11.80
2022-08-26T06:39:31.846Z,12.68
2022-08-26T06:42:00.498Z,12.70
2022-08-26T06:44:28.942Z,11.75
2022-08-26T06:46:57.006Z,11.60
2022-08-26T06:49:27.161Z,11.38
2022-08-26T06:51:58.632Z,11.35
2022-08-26T06:54:31.554Z,12.75
2022-08-26T06:57:01.171Z,13.02
2022-08-26T06:59:31.227Z,13.45
2022-08-26T07:01:59.527Z,12.52
2022-08-26T07:04:28.042Z,13.90
2022-08-26T07:06:56.736Z,13.63
2022-08-26T07:09:30.350Z,13.68
2022-08-26T07:11:58.971Z,12.88
2022-08-26T07:14:27.376Z,14.00
2022-08-26T07:16:55.927Z,12.88
2022-08-26T07:19:30.066Z,11.68
2022-08-26T07:21:59.072Z,11.77
2022-08-26T07:24:29.197Z,11.32
2022-08-26T07:27:00.722Z,12.05
2022-08-26T07:29:29.891Z,12.50
2022-08-26T07:31:58.064Z,12.15
2022-08-26T07:34:26.540Z,11.77
2022-08-26T07:36:55.293Z,11.32
2022-08-26T07:39:24.647Z,11.20
2022-08-26T07:41:54.419Z,11.35
2022-08-26T07:44:22.717Z,10.70
2022-08-26T07:46:53.457Z,12.02
2022-08-26T07:49:22.403Z,10.45
2022-08-26T07:51:51.377Z,10.50
2022-08-26T07:54:20.312Z,10.93
2022-08-26T07:56:56.981Z,10.77
2022-08-26T07:59:25.640Z,10.82
2022-08-26T08:01:54.193Z,9.88
2022-08-26T08:04:26.425Z,10.20
2022-08-26T08:06:56.091Z,10.23
2022-08-26T08:09:24.847Z,10.13
2022-08-26T08:11:54.118Z,10.13
2022-08-26T08:14:23.614Z,10.20
2022-08-26T08:16:54.735Z,9.55
2022-08-26T08:19:23.843Z,9.25
2022-08-26T08:21:52.168Z,8.95
2022-08-26T08:24:21.991Z,8.95
2022-08-26T08:26:50.482Z,8.00
2022-08-26T08:29:19.287Z,9.60
2022-08-26T08:31:56.759Z,9.15
2022-08-26T08:34:31.158Z,9.15
2022-08-26T08:36:59.595Z,7.57
2022-08-26T08:39:28.282Z,7.15
2022-08-26T08:42:31.496Z,6.45
2022-08-26T08:45:04.567Z,4.95
2022-08-26T08:47:38.655Z,5.20
2022-08-26T08:50:25.667Z,5.53
2022-08-26T08:53:01.954Z,5.45
2022-08-26T08:55:37.349Z,4.20
2022-08-26T08:58:10.086Z,4.00
2022-08-26T09:00:44.540Z,4.30
2022-08-26T09:03:27.944Z,3.40
2022-08-26T09:05:59.888Z,4.80
2022-08-26T09:08:35.197Z,4.95
2022-08-26T09:11:04.856Z,3.88
2022-08-26T09:13:35.289Z,4.80
2022-08-26T09:16:09.915Z,4.40
2022-08-26T09:18:52.777Z,5.25
2022-08-26T09:21:23.571Z,5.78
2022-08-26T09:23:55.686Z,5.43
2022-08-26T09:26:30.803Z,5.35
2022-08-26T09:29:02.673Z,5.00
2022-08-26T09:31:32.777Z,4.15
2022-08-26T09:34:13.117Z,3.95
2022-08-26T09:36:48.994Z,3.30
2022-08-26T09:39:28.413Z,3.40
2022-08-26T09:42:09.530Z,3.05
2022-08-26T09:44:55.804Z,3.00
2022-08-26T09:47:29.301Z,2.70
2022-08-26T09:50:04.590Z,2.72
2022-08-26T09:55:13.866Z,3.10
2022-08-26T09:57:51.216Z,2.60
2022-08-26T10:00:32.875Z,3.47
2022-08-26T10:03:03.740Z,3.60
2022-08-26T10:05:40.794Z,3.00
2022-08-26T10:08:23.091Z,2.20
2022-08-26T10:10:53.414Z,3.45
2022-08-26T10:13:29.686Z,2.90
2022-08-26T10:16:05.605Z,3.03
2022-08-26T10:18:37.661Z,3.00
2022-08-26T10:21:11.379Z,3.00
2022-08-26T10:23:43.359Z,3.63
2022-08-26T10:26:17.508Z,3.20
2022-08-26T10:28:54.986Z,3.35
2022-08-26T10:31:30.289Z,2.55
2022-08-26T10:34:12.334Z,2.90
2022-08-26T10:37:15.699Z,3.45
2022-08-26T10:39:51.963Z,2.45
2022-08-26T10:42:31.080Z,2.78
2022-08-26T10:45:05.944Z,3.22
2022-08-26T10:47:42.677Z,3.58
2022-08-26T10:50:11.609Z,3.30
2022-08-26T10:52:56.406Z,3.10
2022-08-26T10:55:34.849Z,2.88
2022-08-26T10:58:26.467Z,3.17
2022-08-26T11:01:22.706Z,3.20
2022-08-26T11:04:01.309Z,3.38
2022-08-26T11:06:31.385Z,3.20
2022-08-26T11:09:02.232Z,3.53
2022-08-26T11:11:49.339Z,3.58
2022-08-26T11:14:58.863Z,2.70
2022-08-26T11:18:00.265Z,3.08
2022-08-26T11:20:42.104Z,2.90
2022-08-26T11:23:41.597Z,3.08
2022-08-26T11:26:30.045Z,2.97
2022-08-26T11:29:12.883Z,2.90
2022-08-26T11:31:57.506Z,3.45
2022-08-26T11:34:57.898Z,2.88
2022-08-26T11:37:33.895Z,2.63
2022-08-26T11:40:04.844Z,3.05
2022-08-26T11:42:41.031Z,3.30
2022-08-26T11:45:19.426Z,3.45
2022-08-26T11:47:49.498Z,3.50
2022-08-26T11:50:20.815Z,3.47
2022-08-26T11:52:59.186Z,2.78
2022-08-26T11:55:27.534Z,3.33
2022-08-26T11:58:00.860Z,2.92
2022-08-26T12:00:33.830Z,2.80
2022-08-26T12:03:09.281Z,3.22
2022-08-26T12:05:46.016Z,2.80
2022-08-26T12:08:18.441Z,2.72
2022-08-26T12:10:48.310Z,3.00
2022-08-26T12:13:26.518Z,3.13
2022-08-26T12:15:56.425Z,2.97
2022-08-26T12:18:28.938Z,3.30
2022-08-26T12:21:01.615Z,3.70
2022-08-26T12:23:41.440Z,2.90
2022-08-26T12:26:14.259Z,2.90
2022-08-26T12:28:47.304Z,3.42
2022-08-26T12:31:23.559Z,2.92
2022-08-26T12:33:53.049Z,3.13
2022-08-26T12:36:27.558Z,3.40
2022-08-26T12:38:58.436Z,3.65
2022-08-26T12:41:48.179Z,3.35
2022-08-26T12:44:53.785Z,5.15
2022-08-26T12:47:30.832Z,3.83
2022-08-26T12:50:17.560Z,3.65
2022-08-26T12:52:55.368Z,3.22
2022-08-26T12:55:26.115Z,3.78
2022-08-26T12:58:13.526Z,3.08
2022-08-26T13:00:45.245Z,3.00
2022-08-26T13:03:47.497Z,3.55
2022-08-26T13:06:27.948Z,2.75
2022-08-26T13:08:58.462Z,2.97
2022-08-26T13:11:29.086Z,3.58
2022-08-26T13:13:59.196Z,4.32
2022-08-26T13:16:29.515Z,3.28
2022-08-26T13:21:30.003Z,3.30
2022-08-26T13:24:08.496Z,2.78
2022-08-26T13:26:36.863Z,2.60
2022-08-26T13:29:09.586Z,2.83
2022-08-26T13:31:42.085Z,3.90
2022-08-26T13:34:11.914Z,3.10
2022-08-26T13:36:40.367Z,3.63
2022-08-26T13:39:08.682Z,3.47
2022-08-26T13:41:37.287Z,3.65
2022-08-26T13:44:06.096Z,3.45
2022-08-26T13:46:34.430Z,2.90
2022-08-26T13:49:04.185Z,3.63
2022-08-26T13:51:33.365Z,4.05
2022-08-26T13:54:01.868Z,3.83
2022-08-26T13:56:31.210Z,3.47
2022-08-26T13:59:01.295Z,3.38
2022-08-26T14:01:31.166Z,3.25
2022-08-26T14:04:00.370Z,3.45
2022-08-26T14:06:31.507Z,3.10
2022-08-26T14:08:59.934Z,3.42
2022-08-26T14:11:29.067Z,3.40
2022-08-26T14:14:05.393Z,3.42
2022-08-26T14:16:37.211Z,3.38
2022-08-26T14:19:25.355Z,3.95
2022-08-26T14:21:55.139Z,3.00
2022-08-26T14:24:23.796Z,2.97
2022-08-26T14:26:51.905Z,3.53
2022-08-26T14:29:19.986Z,3.20
2022-08-26T14:31:48.455Z,3.10
2022-08-26T14:34:16.746Z,3.10
2022-08-26T14:36:44.919Z,3.25
2022-08-26T14:39:14.794Z,2.60
2022-08-26T14:41:54.584Z,3.20
2022-08-26T14:44:25.649Z,2.83
2022-08-26T14:46:54.698Z,2.70
2022-08-26T14:49:24.157Z,2.42
2022-08-26T14:51:52.286Z,2.83
2022-08-26T14:54:21.496Z,2.42
2022-08-26T14:56:51.800Z,3.10
2022-08-26T14:59:22.410Z,2.40
2022-08-26T15:01:51.071Z,4.93
2022-08-26T15:04:19.567Z,2.53
2022-08-26T15:06:47.995Z,2.40
2022-08-26T15:09:17.862Z,2.33
2022-08-26T15:11:48.019Z,2.72
2022-08-26T15:14:19.016Z,2.17
2022-08-26T15:16:49.622Z,2.50
2022-08-26T15:19:18.057Z,4.55
2022-08-26T15:21:47.443Z,2.75
2022-08-26T15:24:17.298Z,3.80
2022-08-26T15:26:47.738Z,3.25
2022-08-26T15:29:16.075Z,2.47
2022-08-26T15:31:44.347Z,3.25
2022-08-26T15:34:16.806Z,2.55
2022-08-26T15:36:47.029Z,2.50
2022-08-26T15:39:16.603Z,2.22
2022-08-26T15:41:45.059Z,3.03
2022-08-26T15:44:17.855Z,3.20
2022-08-26T15:46:46.607Z,2.75
2022-08-26T15:49:17.807Z,2.50
2022-08-26T15:51:50.466Z,2.63
2022-08-26T15:54:21.216Z,2.85
2022-08-26T15:56:52.161Z,3.08
2022-08-26T15:59:23.608Z,4.00
2022-08-26T16:01:52.310Z,3.17
2022-08-26T16:04:21.047Z,3.10
2022-08-26T16:06:52.247Z,2.60
2022-08-26T16:09:24.346Z,2.78
2022-08-26T16:11:52.823Z,2.65
2022-08-26T16:14:23.037Z,2.58
2022-08-26T16:19:20.006Z,2.35
2022-08-26T16:21:48.352Z,2.05
2022-08-26T16:24:16.591Z,2.40
2022-08-26T16:26:45.726Z,2.25
2022-08-26T16:29:16.184Z,2.55
2022-08-26T16:34:13.728Z,3.58
2022-08-26T16:36:42.030Z,4.30
2022-08-26T16:39:12.558Z,2.95
2022-08-26T16:41:42.445Z,2.65
2022-08-26T16:44:12.003Z,2.53
2022-08-26T16:46:41.329Z,2.30
2022-08-26T16:49:11.066Z,2.20
2022-08-26T16:51:39.345Z,2.63
2022-08-26T16:54:09.343Z,2.33
2022-08-26T16:56:38.581Z,2.50
2022-08-26T16:59:10.599Z,2.03
2022-08-26T17:01:38.983Z,3.05
2022-08-26T17:04:07.270Z,3.03
2022-08-26T17:06:37.001Z,2.75
2022-08-26T17:09:05.570Z,2.60
2022-08-26T17:11:34.421Z,2.80
2022-08-26T17:14:03.084Z,3.08
2022-08-26T17:16:31.582Z,6.05
2022-08-26T17:19:00.942Z,2.70
2022-08-26T17:21:29.953Z,6.65
2022-08-26T17:23:59.488Z,3.40
2022-08-26T17:26:27.904Z,3.30
2022-08-26T17:28:56.353Z,4.43
2022-08-26T17:31:25.212Z,3.67
2022-08-26T17:33:54.466Z,5.78
2022-08-26T17:36:27.559Z,3.10
2022-08-26T17:38:58.003Z,4.75
2022-08-26T17:41:28.170Z,2.53
2022-08-26T17:43:56.617Z,2.30
2022-08-26T17:46:25.145Z,2.22
2022-08-26T17:48:53.380Z,2.28
2022-08-26T17:51:23.419Z,2.10
2022-08-26T17:53:52.089Z,2.88
2022-08-26T17:56:24.217Z,3.13
2022-08-26T17:58:55.051Z,2.80
2022-08-26T18:01:27.094Z,4.15
2022-08-26T18:04:00.254Z,6.75
2022-08-26T18:06:32.385Z,2.83
2022-08-26T18:09:02.618Z,2.33
2022-08-26T18:11:31.976Z,2.38
2022-08-26T18:14:02.080Z,2.38
2022-08-26T18:16:31.771Z,2.72
2022-08-26T18:19:01.337Z,2.55
2022-08-26T18:21:29.577Z,2.70
2022-08-26T18:23:58.499Z,3.10
2022-08-26T18:26:29.453Z,2.63
2022-08-26T18:28:58.712Z,2.50
2022-08-26T18:31:28.973Z,3.00
2022-08-26T18:33:57.759Z,3.53
2022-08-26T18:36:27.887Z,3.50
2022-08-26T18:38:57.182Z,3.60
2022-08-26T18:41:28.958Z,3.55
2022-08-26T18:43:59.109Z,3.00
2022-08-26T18:46:29.926Z,3.28
2022-08-26T18:48:58.913Z,2.78
2022-08-26T18:51:29.715Z,3.25
2022-08-26T18:53:58.623Z,2.53
2022-08-26T18:56:27.641Z,2.38
2022-08-26T18:58:55.984Z,2.85
2022-08-26T19:01:27.345Z,2.60
2022-08-26T19:03:58.034Z,2.50
2022-08-26T19:06:28.262Z,2.83
2022-08-26T19:08:58.151Z,2.78
2022-08-26T19:11:32.476Z,2.50
2022-08-26T19:14:13.086Z,3.10
2022-08-26T19:16:42.507Z,4.50
2022-08-26T19:19:12.514Z,3.95
2022-08-26T19:21:41.391Z,8.27
2022-08-26T19:24:15.520Z,8.43
2022-08-26T19:26:45.202Z,7.22
2022-08-26T19:29:15.464Z,5.87
2022-08-26T19:31:44.512Z,4.45
2022-08-26T19:34:18.236Z,3.53
2022-08-26T19:36:49.312Z,3.03
2022-08-26T19:39:19.094Z,3.50
2022-08-26T19:41:47.574Z,2.88
2022-08-26T19:44:38.982Z,3.10
2022-08-26T19:47:09.546Z,2.80
2022-08-26T19:49:40.569Z,4.60
2022-08-26T19:52:09.084Z,5.43
2022-08-26T19:54:37.408Z,16.00
2022-08-26T19:57:06.164Z,7.15
2022-08-26T19:59:36.223Z,7.45
2022-08-26T20:02:08.508Z,6.68
2022-08-26T20:04:40.881Z,5.10
2022-08-26T20:07:11.399Z,4.68
2022-08-26T20:09:41.952Z,5.93
2022-08-26T20:12:12.452Z,7.38
2022-08-26T20:14:45.176Z,6.15
2022-08-26T20:17:14.588Z,4.32
2022-08-26T20:20:02.462Z,4.80
2022-08-26T20:22:31.013Z,3.92
2022-08-26T20:24:59.648Z,4.55
2022-08-26T20:27:37.889Z,4.53
2022-08-26T20:30:09.406Z,3.85
2022-08-26T20:32:40.852Z,4.55
2022-08-26T20:35:14.907Z,4.70
2022-08-26T20:37:44.203Z,3.97
2022-08-26T20:40:14.706Z,4.65
2022-08-26T20:42:43.393Z,4.70
2022-08-26T20:45:12.489Z,4.63
2022-08-26T20:47:41.149Z,4.60
2022-08-26T20:50:11.259Z,4.60
2022-08-26T20:52:39.763Z,4.47
2022-08-26T20:55:08.785Z,4.63
2022-08-26T20:57:39.039Z,4.10
2022-08-26T21:00:08.550Z,4.88
2022-08-26T21:02:38.892Z,4.75
2022-08-26T21:05:10.982Z,4.72
2022-08-26T21:07:39.516Z,5.13
2022-08-26T21:10:08.780Z,4.80
2022-08-26T21:12:37.319Z,4.30
2022-08-26T21:15:07.523Z,4.80
2022-08-26T21:17:37.646Z,4.22
2022-08-26T21:20:06.367Z,4.43
2022-08-26T21:22:36.449Z,4.00
2022-08-26T21:25:05.686Z,4.75
2022-08-26T21:27:35.707Z,4.25
2022-08-26T21:30:04.915Z,4.30
2022-08-26T21:32:33.585Z,4.63
2022-08-26T21:35:01.983Z,4.20
2022-08-26T21:37:31.316Z,4.55
2022-08-26T21:40:03.589Z,4.75
2022-08-26T21:42:34.425Z,4.65
2022-08-26T21:45:03.927Z,4.03
2022-08-26T21:47:32.806Z,4.30
2022-08-26T21:50:01.286Z,4.22
2022-08-26T21:52:29.889Z,4.70
2022-08-26T21:55:01.053Z,4.78
2022-08-26T21:57:30.165Z,4.57
2022-08-26T21:59:58.551Z,4.65
2022-08-26T22:02:26.800Z,4.18
2022-08-26T22:04:56.493Z,4.40
2022-08-26T22:07:24.772Z,4.75
2022-08-26T22:09:52.977Z,4.75
2022-08-26T22:12:22.706Z,4.60
2022-08-26T22:14:50.922Z,5.03
2022-08-26T22:17:20.130Z,4.63
2022-08-26T22:19:48.293Z,4.80
2022-08-26T22:22:16.917Z,4.90
2022-08-26T22:24:45.065Z,5.10
2022-08-26T22:27:14.401Z,6.43
2022-08-26T22:29:43.925Z,5.93
2022-08-26T22:32:12.213Z,5.28
2022-08-26T22:34:41.194Z,5.63
2022-08-26T22:37:09.571Z,5.38
2022-08-26T22:39:37.767Z,5.45
2022-08-26T22:42:05.995Z,5.20
2022-08-26T22:44:36.597Z,6.30
2022-08-26T22:47:31.369Z,5.05
2022-08-26T22:50:01.320Z,5.53
2022-08-26T22:52:29.468Z,5.70
2022-08-26T22:54:57.589Z,4.95
2022-08-26T22:57:29.182Z,5.60
2022-08-26T22:59:57.441Z,5.13
2022-08-26T23:02:25.512Z,4.90
2022-08-26T23:04:55.085Z,4.75
2022-08-26T23:07:23.228Z,5.05
2022-08-26T23:09:51.339Z,5.28
2022-08-26T23:12:20.565Z,5.13
2022-08-26T23:14:49.040Z,4.50
2022-08-26T23:17:17.201Z,4.05
2022-08-26T23:19:45.286Z,4.35
2022-08-26T23:22:16.955Z,4.15
2022-08-26T23:24:45.310Z,5.40
2022-08-26T23:27:13.414Z,4.93
2022-08-26T23:29:41.702Z,5.45
2022-08-26T23:32:10.277Z,4.93
2022-08-26T23:34:55.978Z,4.80
2022-08-26T23:37:26.452Z,5.30
2022-08-26T23:39:55.173Z,5.80
2022-08-26T23:42:23.446Z,5.30
2022-08-26T23:44:52.644Z,4.97
2022-08-26T23:47:21.252Z,5.88
2022-08-26T23:49:49.313Z,4.97
2022-08-26T23:52:40.230Z,5.75
2022-08-26T23:57:39.499Z,5.40
